createdAt,value
2023-01-26T06:54:11.131Z,100767.16
2023-01-26T09:53:12.393Z,100733.27
2023-01-26T10:06:34.238Z,100716.19
2023-01-26T11:18:55.053Z,100672.69
2023-01-26T11:22:43.255Z,100671.09
2023-01-26T11:43:00.343Z,100653.94
2023-01-26T11:46:23.105Z,100647.23
2023-01-26T11:50:05.780Z,100644.67
2023-01-26T11:53:20.482Z,100636.25
2023-01-26T11:56:07.122Z,100624.90
2023-01-26T11:59:54.900Z,100616.11
2023-01-26T12:03:11.784Z,100612.00
2023-01-26T12:06:44.324Z,100614.98
2023-01-26T12:10:44.606Z,100621.27
2023-01-26T12:17:19.034Z,100617.77
2023-01-26T12:24:48.457Z,100609.83
2023-01-26T12:35:38.379Z,100601.55
2023-01-26T12:38:58.139Z,100599.10
2023-01-26T12:42:58.918Z,100597.38
2023-01-26T13:00:32.788Z,100600.08
2023-01-26T13:04:04.972Z,100596.02
2023-01-26T13:10:40.807Z,100596.77
2023-01-26T13:17:43.959Z,100600.16
2023-01-26T13:21:07.906Z,100594.32
2023-01-26T13:27:53.958Z,100591.36
2023-01-26T13:35:43.191Z,100580.02
2023-01-26T13:39:35.322Z,100575.65
2023-01-26T13:46:16.064Z,100565.19
2023-01-26T13:54:04.211Z,100563.54
2023-01-26T13:57:58.785Z,100567.14
2023-01-26T14:01:55.179Z,100576.39
2023-01-26T14:05:11.838Z,100581.87
2023-01-26T14:08:56.077Z,100578.92
2023-01-26T14:19:13.904Z,100580.34
2023-01-26T14:22:35.684Z,100578.27
2023-01-26T14:25:47.493Z,100574.23
2023-01-26T14:36:00.826Z,100579.31
2023-01-26T14:43:03.336Z,100580.70
2023-01-26T14:46:45.653Z,100583.35
2023-01-26T14:50:23.203Z,100582.25
2023-01-26T15:04:39.458Z,100577.72
2023-01-26T16:15:59.711Z,100580.10
2023-01-26T16:19:34.993Z,100582.28
2023-01-26T16:38:13.633Z,100578.48
2023-01-26T16:51:03.215Z,100576.40
2023-01-26T17:07:02.003Z,100576.29
2023-01-26T17:10:31.653Z,100582.55
2023-01-26T17:14:19.282Z,100579.94
2023-01-26T17:21:01.534Z,100583.54
2023-01-26T17:34:14.455Z,100582.10
2023-01-26T17:38:00.934Z,100587.05
2023-01-26T17:41:41.696Z,100585.52
2023-01-26T17:49:01.546Z,100586.48
2023-01-26T17:59:01.437Z,100589.84
2023-01-26T18:02:40.600Z,100590.31
2023-01-26T18:48:33.841Z,100607.66
2023-01-26T18:51:50.207Z,100614.89
2023-01-26T18:55:27.499Z,100611.84
2023-01-26T18:58:39.342Z,100614.24
2023-01-26T19:02:11.697Z,100614.29
2023-01-26T19:09:09.001Z,100610.27
2023-01-26T19:18:28.675Z,100611.09
2023-01-26T19:21:11.099Z,100613.88
2023-01-26T19:23:51.901Z,100606.16
2023-01-26T19:26:48.097Z,100604.58
2023-01-26T19:35:52.109Z,100597.20
2023-01-26T19:39:28.097Z,100595.73
2023-01-26T20:27:51.501Z,100570.13
2023-01-26T20:31:29.279Z,100568.00
2023-01-26T20:35:03.153Z,100571.94
2023-01-26T20:51:28.218Z,100579.84
2023-01-26T20:54:03.498Z,100583.02
2023-01-26T20:57:19.007Z,100582.64
2023-01-26T20:59:55.182Z,100583.71
2023-01-26T21:02:29.290Z,100584.06
2023-01-26T21:05:03.077Z,100581.88
2023-01-26T21:07:36.721Z,100579.27
2023-01-26T21:10:10.113Z,100583.15
2023-01-26T21:12:43.264Z,100577.55
2023-01-26T21:15:16.015Z,100573.80
2023-01-26T21:17:47.067Z,100573.48
2023-01-26T21:20:21.761Z,100572.60
2023-01-26T21:22:53.685Z,100572.73
2023-01-26T21:25:24.024Z,100576.09
2023-01-26T21:27:56.674Z,100581.49
2023-01-26T21:30:32.939Z,100588.12
2023-01-26T21:33:03.106Z,100586.41
2023-01-26T21:35:37.685Z,100589.29
2023-01-26T21:38:38.673Z,100592.06
2023-01-26T21:41:39.185Z,100595.11
2023-01-26T21:44:12.171Z,100590.73
2023-01-26T21:46:42.557Z,100591.78
2023-01-26T21:49:14.688Z,100592.35
2023-01-26T21:52:03.931Z,100593.85
2023-01-26T21:55:01.285Z,100590.45
2023-01-26T21:57:52.622Z,100591.29
2023-01-26T22:00:25.255Z,100590.52
2023-01-26T22:03:00.996Z,100594.65
2023-01-26T22:05:34.326Z,100595.11
2023-01-26T22:08:08.563Z,100597.23
2023-01-26T22:10:39.828Z,100597.84
2023-01-26T22:13:32.974Z,100593.27
2023-01-26T22:16:04.406Z,100590.57
2023-01-26T22:18:37.849Z,100582.34
2023-01-26T22:21:09.595Z,100584.36
2023-01-26T22:23:40.368Z,100584.59
2023-01-26T22:26:20.925Z,100580.75
2023-01-26T22:28:59.200Z,100581.50
2023-01-26T22:31:30.639Z,100574.68
2023-01-26T22:34:03.993Z,100572.23
2023-01-26T22:36:41.471Z,100575.27
2023-01-26T22:39:16.093Z,100571.38
2023-01-26T22:41:48.907Z,100575.06
2023-01-26T22:44:19.940Z,100576.85
2023-01-26T22:46:52.097Z,100580.46
2023-01-26T22:49:22.769Z,100578.94
2023-01-26T22:51:55.112Z,100577.13
2023-01-26T22:54:25.654Z,100570.66
2023-01-26T22:56:56.030Z,100574.86
2023-01-26T22:59:26.648Z,100571.17
2023-01-26T23:01:56.956Z,100571.16
2023-01-26T23:04:27.370Z,100574.90
2023-01-26T23:06:59.089Z,100571.73
2023-01-26T23:09:33.618Z,100572.00
2023-01-26T23:12:05.431Z,100565.73
2023-01-26T23:14:36.016Z,100562.23
2023-01-26T23:17:08.481Z,100565.49
2023-01-26T23:19:45.944Z,100567.08
2023-01-26T23:22:19.500Z,100565.64
2023-01-26T23:25:11.308Z,100560.36
2023-01-26T23:27:54.073Z,100556.71
2023-01-26T23:30:28.807Z,100558.02
2023-01-26T23:33:04.912Z,100559.83
2023-01-26T23:35:38.632Z,100563.58
2023-01-26T23:38:38.077Z,100565.81
2023-01-26T23:41:12.399Z,100567.13
2023-01-26T23:44:02.610Z,100567.55
2023-01-26T23:47:08.445Z,100571.92
2023-01-26T23:49:58.864Z,100572.61
2023-01-26T23:52:30.060Z,100567.02
2023-01-26T23:55:04.165Z,100566.85
2023-01-26T23:57:35.604Z,100567.44
